sensor_id;sensor_type;location;lat;lon;timestamp;P1;durP1;ratioP1;P2;durP2;ratioP2
789;SDS011;378;48.844;9.156;2022-09-03T00:00:13;4.13;;;1.30;;
789;SDS011;378;48.844;9.156;2022-09-03T00:02:42;3.13;;;1.17;;
789;SDS011;378;48.844;9.156;2022-09-03T00:05:16;1.60;;;1.13;;
789;SDS011;378;48.844;9.156;2022-09-03T00:07:50;2.60;;;1.00;;
789;SDS011;378;48.844;9.156;2022-09-03T00:10:24;3.35;;;1.40;;
789;SDS011;378;48.844;9.156;2022-09-03T00:12:56;3.42;;;1.45;;
789;SDS011;378;48.844;9.156;2022-09-03T00:15:26;4.55;;;1.10;;
789;SDS011;378;48.844;9.156;2022-09-03T00:17:58;1.23;;;1.02;;
789;SDS011;378;48.844;9.156;2022-09-03T00:20:30;2.28;;;1.10;;
789;SDS011;378;48.844;9.156;2022-09-03T00:23:02;1.88;;;1.00;;
789;SDS011;378;48.844;9.156;2022-09-03T00:25:33;1.50;;;1.00;;
789;SDS011;378;48.844;9.156;2022-09-03T00:28:06;3.58;;;1.30;;
789;SDS011;378;48.844;9.156;2022-09-03T00:30:40;4.32;;;1.15;;
789;SDS011;378;48.844;9.156;2022-09-03T00:33:09;2.22;;;1.23;;
789;SDS011;378;48.844;9.156;2022-09-03T00:35:42;3.63;;;1.20;;
789;SDS011;378;48.844;9.156;2022-09-03T00:38:12;1.60;;;1.08;;
789;SDS011;378;48.844;9.156;2022-09-03T00:40:50;2.05;;;1.10;;
789;SDS011;378;48.844;9.156;2022-09-03T00:43:28;2.88;;;1.08;;
789;SDS011;378;48.844;9.156;2022-09-03T00:46:12;3.92;;;1.10;;
789;SDS011;378;48.844;9.156;2022-09-03T00:48:54;2.42;;;0.90;;
789;SDS011;378;48.844;9.156;2022-09-03T00:51:34;1.80;;;1.10;;
789;SDS011;378;48.844;9.156;2022-09-03T00:54:09;2.00;;;1.30;;
789;SDS011;378;48.844;9.156;2022-09-03T00:56:46;3.85;;;1.38;;
789;SDS011;378;48.844;9.156;2022-09-03T00:59:24;3.38;;;1.20;;
789;SDS011;378;48.844;9.156;2022-09-03T01:02:00;5.82;;;1.20;;
789;SDS011;378;48.844;9.156;2022-09-03T01:04:38;2.28;;;1.00;;
789;SDS011;378;48.844;9.156;2022-09-03T01:07:16;3.30;;;1.13;;
789;SDS011;378;48.844;9.156;2022-09-03T01:09:58;1.80;;;1.10;;
789;SDS011;378;48.844;9.156;2022-09-03T01:12:35;2.92;;;1.27;;
789;SDS011;378;48.844;9.156;2022-09-03T01:15:08;1.95;;;1.20;;
789;SDS011;378;48.844;9.156;2022-09-03T01:17:44;2.17;;;1.00;;
789;SDS011;378;48.844;9.156;2022-09-03T01:20:26;3.53;;;1.20;;
789;SDS011;378;48.844;9.156;2022-09-03T01:26:16;1.30;;;0.95;;
789;SDS011;378;48.844;9.156;2022-09-03T01:29:05;2.95;;;1.08;;
789;SDS011;378;48.844;9.156;2022-09-03T01:31:41;1.98;;;1.20;;
789;SDS011;378;48.844;9.156;2022-09-03T01:34:18;1.67;;;0.90;;
789;SDS011;378;48.844;9.156;2022-09-03T01:36:52;2.65;;;1.27;;
789;SDS011;378;48.844;9.156;2022-09-03T01:39:27;3.53;;;1.00;;
789;SDS011;378;48.844;9.156;2022-09-03T01:42:00;2.33;;;1.27;;
789;SDS011;378;48.844;9.156;2022-09-03T01:44:55;1.83;;;1.20;;
789;SDS011;378;48.844;9.156;2022-09-03T01:47:36;1.38;;;0.95;;
789;SDS011;378;48.844;9.156;2022-09-03T01:50:15;1.17;;;0.95;;
789;SDS011;378;48.844;9.156;2022-09-03T01:52:53;4.00;;;1.20;;
789;SDS011;378;48.844;9.156;2022-09-03T01:55:28;2.42;;;1.13;;
789;SDS011;378;48.844;9.156;2022-09-03T01:57:57;1.95;;;1.20;;
789;SDS011;378;48.844;9.156;2022-09-03T02:00:33;3.80;;;1.27;;
789;SDS011;378;48.844;9.156;2022-09-03T02:03:06;4.75;;;1.33;;
789;SDS011;378;48.844;9.156;2022-09-03T02:05:35;2.22;;;1.25;;
789;SDS011;378;48.844;9.156;2022-09-03T02:08:03;2.33;;;1.30;;
789;SDS011;378;48.844;9.156;2022-09-03T02:10:33;3.40;;;1.23;;
789;SDS011;378;48.844;9.156;2022-09-03T02:13:06;4.40;;;1.00;;
789;SDS011;378;48.844;9.156;2022-09-03T02:15:37;1.73;;;1.00;;
789;SDS011;378;48.844;9.156;2022-09-03T02:18:09;1.33;;;1.00;;
789;SDS011;378;48.844;9.156;2022-09-03T02:20:41;2.53;;;1.13;;
789;SDS011;378;48.844;9.156;2022-09-03T02:23:08;2.95;;;1.10;;
789;SDS011;378;48.844;9.156;2022-09-03T02:25:35;2.42;;;1.27;;
789;SDS011;378;48.844;9.156;2022-09-03T02:28:05;2.28;;;1.30;;
789;SDS011;378;48.844;9.156;2022-09-03T02:30:33;1.98;;;1.10;;
789;SDS011;378;48.844;9.156;2022-09-03T02:33:02;1.05;;;0.98;;
789;SDS011;378;48.844;9.156;2022-09-03T02:35:29;1.92;;;1.20;;
789;SDS011;378;48.844;9.156;2022-09-03T02:37:55;1.42;;;1.02;;
789;SDS011;378;48.844;9.156;2022-09-03T02:40:22;1.95;;;1.10;;
789;SDS011;378;48.844;9.156;2022-09-03T02:42:49;2.78;;;1.20;;
789;SDS011;378;48.844;9.156;2022-09-03T02:45:19;2.17;;;1.00;;
789;SDS011;378;48.844;9.156;2022-09-03T02:47:50;2.35;;;1.13;;
789;SDS011;378;48.844;9.156;2022-09-03T02:50:22;2.00;;;1.17;;
789;SDS011;378;48.844;9.156;2022-09-03T02:52:49;2.47;;;1.10;;
789;SDS011;378;48.844;9.156;2022-09-03T02:55:16;3.40;;;1.52;;
789;SDS011;378;48.844;9.156;2022-09-03T02:57:44;4.80;;;1.30;;
789;SDS011;378;48.844;9.156;2022-09-03T03:00:11;1.73;;;1.20;;
789;SDS011;378;48.844;9.156;2022-09-03T03:02:39;3.28;;;1.30;;
789;SDS011;378;48.844;9.156;2022-09-03T03:05:07;1.95;;;1.17;;
789;SDS011;378;48.844;9.156;2022-09-03T03:07:39;3.67;;;1.38;;
789;SDS011;378;48.844;9.156;2022-09-03T03:10:06;1.15;;;1.00;;
789;SDS011;378;48.844;9.156;2022-09-03T03:12:34;4.65;;;1.00;;
789;SDS011;378;48.844;9.156;2022-09-03T03:15:02;1.65;;;1.30;;
789;SDS011;378;48.844;9.156;2022-09-03T03:17:29;3.75;;;1.23;;
789;SDS011;378;48.844;9.156;2022-09-03T03:19:56;5.13;;;1.23;;
789;SDS011;378;48.844;9.156;2022-09-03T03:22:23;2.20;;;1.10;;
789;SDS011;378;48.844;9.156;2022-09-03T03:24:51;5.90;;;1.27;;
789;SDS011;378;48.844;9.156;2022-09-03T03:27:19;3.90;;;1.23;;
789;SDS011;378;48.844;9.156;2022-09-03T03:29:46;4.03;;;1.40;;
789;SDS011;378;48.844;9.156;2022-09-03T03:32:14;2.85;;;1.17;;
789;SDS011;378;48.844;9.156;2022-09-03T03:34:41;1.67;;;1.23;;
789;SDS011;378;48.844;9.156;2022-09-03T03:37:08;2.70;;;1.52;;
789;SDS011;378;48.844;9.156;2022-09-03T03:39:35;3.10;;;1.60;;
789;SDS011;378;48.844;9.156;2022-09-03T03:42:03;2.42;;;1.42;;
789;SDS011;378;48.844;9.156;2022-09-03T03:44:30;2.78;;;1.40;;
789;SDS011;378;48.844;9.156;2022-09-03T03:46:57;3.50;;;1.48;;
789;SDS011;378;48.844;9.156;2022-09-03T03:49:24;3.47;;;1.60;;
789;SDS011;378;48.844;9.156;2022-09-03T03:51:50;3.90;;;1.65;;
789;SDS011;378;48.844;9.156;2022-09-03T03:54:17;5.35;;;1.60;;
789;SDS011;378;48.844;9.156;2022-09-03T03:56:44;3.08;;;1.67;;
789;SDS011;378;48.844;9.156;2022-09-03T03:59:12;3.28;;;1.55;;
789;SDS011;378;48.844;9.156;2022-09-03T04:01:39;2.55;;;1.73;;
789;SDS011;378;48.844;9.156;2022-09-03T04:04:06;5.78;;;1.58;;
789;SDS011;378;48.844;9.156;2022-09-03T04:06:33;6.90;;;1.45;;
789;SDS011;378;48.844;9.156;2022-09-03T04:09:00;3.72;;;1.80;;
789;SDS011;378;48.844;9.156;2022-09-03T04:11:27;5.38;;;1.60;;
789;SDS011;378;48.844;9.156;2022-09-03T04:13:53;4.63;;;1.75;;
789;SDS011;378;48.844;9.156;2022-09-03T04:16:22;6.10;;;1.60;;
789;SDS011;378;48.844;9.156;2022-09-03T04:18:51;4.43;;;1.50;;
789;SDS011;378;48.844;9.156;2022-09-03T04:21:19;4.15;;;1.63;;
789;SDS011;378;48.844;9.156;2022-09-03T04:23:48;2.30;;;1.48;;
789;SDS011;378;48.844;9.156;2022-09-03T04:26:17;2.15;;;1.40;;
789;SDS011;378;48.844;9.156;2022-09-03T04:28:45;2.80;;;1.50;;
789;SDS011;378;48.844;9.156;2022-09-03T04:31:13;2.45;;;1.42;;
789;SDS011;378;48.844;9.156;2022-09-03T04:33:42;6.75;;;1.40;;
789;SDS011;378;48.844;9.156;2022-09-03T04:36:10;3.03;;;1.70;;
789;SDS011;378;48.844;9.156;2022-09-03T04:38:39;1.90;;;1.38;;
789;SDS011;378;48.844;9.156;2022-09-03T04:41:08;3.72;;;1.80;;
789;SDS011;378;48.844;9.156;2022-09-03T04:43:36;3.53;;;1.50;;
789;SDS011;378;48.844;9.156;2022-09-03T04:46:03;2.40;;;1.50;;
789;SDS011;378;48.844;9.156;2022-09-03T04:48:32;2.80;;;1.80;;
789;SDS011;378;48.844;9.156;2022-09-03T04:51:02;5.80;;;1.40;;
789;SDS011;378;48.844;9.156;2022-09-03T04:53:30;3.05;;;1.70;;
789;SDS011;378;48.844;9.156;2022-09-03T04:55:58;3.08;;;1.67;;
789;SDS011;378;48.844;9.156;2022-09-03T04:58:25;3.22;;;1.30;;
789;SDS011;378;48.844;9.156;2022-09-03T05:00:52;3.60;;;1.55;;
789;SDS011;378;48.844;9.156;2022-09-03T05:03:19;4.28;;;1.52;;
789;SDS011;378;48.844;9.156;2022-09-03T05:05:50;3.17;;;1.50;;
789;SDS011;378;48.844;9.156;2022-09-03T05:08:19;3.30;;;1.58;;
789;SDS011;378;48.844;9.156;2022-09-03T05:10:46;3.50;;;1.70;;
789;SDS011;378;48.844;9.156;2022-09-03T05:13:13;6.40;;;2.00;;
789;SDS011;378;48.844;9.156;2022-09-03T05:15:40;3.25;;;1.70;;
789;SDS011;378;48.844;9.156;2022-09-03T05:18:08;4.05;;;1.67;;
789;SDS011;378;48.844;9.156;2022-09-03T05:20:34;5.18;;;2.00;;
789;SDS011;378;48.844;9.156;2022-09-03T05:23:02;4.78;;;1.70;;
789;SDS011;378;48.844;9.156;2022-09-03T05:25:30;3.58;;;1.83;;
789;SDS011;378;48.844;9.156;2022-09-03T05:27:57;4.05;;;1.63;;
789;SDS011;378;48.844;9.156;2022-09-03T05:30:24;6.68;;;1.85;;
789;SDS011;378;48.844;9.156;2022-09-03T05:32:51;2.30;;;1.65;;
789;SDS011;378;48.844;9.156;2022-09-03T05:35:18;2.78;;;1.80;;
789;SDS011;378;48.844;9.156;2022-09-03T05:37:45;6.22;;;1.80;;
789;SDS011;378;48.844;9.156;2022-09-03T05:40:12;3.30;;;1.70;;
789;SDS011;378;48.844;9.156;2022-09-03T05:42:40;2.15;;;1.70;;
789;SDS011;378;48.844;9.156;2022-09-03T05:45:07;4.20;;;2.15;;
789;SDS011;378;48.844;9.156;2022-09-03T05:47:35;3.65;;;1.70;;
789;SDS011;378;48.844;9.156;2022-09-03T05:50:04;2.95;;;1.67;;
789;SDS011;378;48.844;9.156;2022-09-03T05:52:32;3.05;;;2.00;;
789;SDS011;378;48.844;9.156;2022-09-03T05:55:00;4.22;;;1.60;;
789;SDS011;378;48.844;9.156;2022-09-03T05:57:27;6.38;;;1.73;;
789;SDS011;378;48.844;9.156;2022-09-03T05:59:56;5.35;;;1.88;;
789;SDS011;378;48.844;9.156;2022-09-03T06:02:24;2.92;;;1.70;;
789;SDS011;378;48.844;9.156;2022-09-03T06:04:51;3.78;;;1.95;;
789;SDS011;378;48.844;9.156;2022-09-03T06:07:18;9.70;;;2.00;;
789;SDS011;378;48.844;9.156;2022-09-03T06:09:46;2.25;;;1.80;;
789;SDS011;378;48.844;9.156;2022-09-03T06:12:12;2.47;;;1.80;;
789;SDS011;378;48.844;9.156;2022-09-03T06:14:39;3.17;;;2.00;;
789;SDS011;378;48.844;9.156;2022-09-03T06:17:07;2.95;;;1.98;;
789;SDS011;378;48.844;9.156;2022-09-03T06:19:36;3.83;;;2.00;;
789;SDS011;378;48.844;9.156;2022-09-03T06:22:03;3.65;;;1.90;;
789;SDS011;378;48.844;9.156;2022-09-03T06:24:30;5.20;;;2.05;;
789;SDS011;378;48.844;9.156;2022-09-03T06:26:57;2.53;;;1.63;;
789;SDS011;378;48.844;9.156;2022-09-03T06:29:24;4.20;;;2.05;;
789;SDS011;378;48.844;9.156;2022-09-03T06:31:51;3.17;;;1.73;;
789;SDS011;378;48.844;9.156;2022-09-03T06:34:20;4.38;;;1.90;;
789;SDS011;378;48.844;9.156;2022-09-03T06:36:50;2.78;;;1.55;;
789;SDS011;378;48.844;9.156;2022-09-03T06:39:17;2.63;;;1.50;;
789;SDS011;378;48.844;9.156;2022-09-03T06:41:44;4.75;;;1.77;;
789;SDS011;378;48.844;9.156;2022-09-03T06:44:12;3.75;;;2.00;;
789;SDS011;378;48.844;9.156;2022-09-03T06:46:39;4.97;;;1.75;;
789;SDS011;378;48.844;9.156;2022-09-03T06:49:07;4.97;;;1.92;;
789;SDS011;378;48.844;9.156;2022-09-03T06:51:36;4.85;;;1.80;;
789;SDS011;378;48.844;9.156;2022-09-03T06:54:04;2.47;;;1.70;;
789;SDS011;378;48.844;9.156;2022-09-03T06:56:32;5.80;;;1.63;;
789;SDS011;378;48.844;9.156;2022-09-03T06:59:02;9.00;;;2.17;;
789;SDS011;378;48.844;9.156;2022-09-03T07:01:31;2.42;;;1.67;;
789;SDS011;378;48.844;9.156;2022-09-03T07:03:59;5.93;;;2.20;;
789;SDS011;378;48.844;9.156;2022-09-03T07:06:28;4.82;;;1.90;;
789;SDS011;378;48.844;9.156;2022-09-03T07:08:57;4.18;;;1.55;;
789;SDS011;378;48.844;9.156;2022-09-03T07:11:25;3.70;;;1.67;;
789;SDS011;378;48.844;9.156;2022-09-03T07:13:54;7.50;;;1.90;;
789;SDS011;378;48.844;9.156;2022-09-03T07:16:23;4.10;;;2.00;;
789;SDS011;378;48.844;9.156;2022-09-03T07:18:51;6.85;;;2.20;;
789;SDS011;378;48.844;9.156;2022-09-03T07:21:19;4.15;;;2.00;;
789;SDS011;378;48.844;9.156;2022-09-03T07:23:48;4.60;;;1.67;;
789;SDS011;378;48.844;9.156;2022-09-03T07:26:19;2.92;;;1.92;;
789;SDS011;378;48.844;9.156;2022-09-03T07:28:47;4.43;;;1.98;;
789;SDS011;378;48.844;9.156;2022-09-03T07:31:15;2.63;;;1.80;;
789;SDS011;378;48.844;9.156;2022-09-03T07:33:43;6.07;;;1.70;;
789;SDS011;378;48.844;9.156;2022-09-03T07:36:11;4.25;;;2.03;;
789;SDS011;378;48.844;9.156;2022-09-03T07:38:39;2.00;;;1.80;;
789;SDS011;378;48.844;9.156;2022-09-03T07:41:08;3.97;;;1.70;;
789;SDS011;378;48.844;9.156;2022-09-03T07:43:37;4.93;;;1.85;;
789;SDS011;378;48.844;9.156;2022-09-03T07:46:05;4.30;;;1.90;;
789;SDS011;378;48.844;9.156;2022-09-03T07:48:32;3.95;;;1.58;;
789;SDS011;378;48.844;9.156;2022-09-03T07:50:59;4.07;;;1.88;;
789;SDS011;378;48.844;9.156;2022-09-03T07:53:26;3.38;;;1.77;;
789;SDS011;378;48.844;9.156;2022-09-03T07:55:59;3.83;;;2.10;;
789;SDS011;378;48.844;9.156;2022-09-03T07:58:27;3.42;;;2.00;;
789;SDS011;378;48.844;9.156;2022-09-03T08:00:56;4.90;;;2.00;;
789;SDS011;378;48.844;9.156;2022-09-03T08:03:23;4.55;;;1.77;;
789;SDS011;378;48.844;9.156;2022-09-03T08:05:50;7.13;;;2.30;;
789;SDS011;378;48.844;9.156;2022-09-03T08:08:18;5.32;;;1.83;;
789;SDS011;378;48.844;9.156;2022-09-03T08:10:44;2.70;;;1.80;;
789;SDS011;378;48.844;9.156;2022-09-03T08:13:11;2.85;;;1.85;;
789;SDS011;378;48.844;9.156;2022-09-03T08:15:38;3.47;;;1.80;;
789;SDS011;378;48.844;9.156;2022-09-03T08:18:08;3.65;;;1.85;;
789;SDS011;378;48.844;9.156;2022-09-03T08:20:35;3.15;;;1.83;;
789;SDS011;378;48.844;9.156;2022-09-03T08:23:03;2.30;;;1.75;;
789;SDS011;378;48.844;9.156;2022-09-03T08:25:30;4.13;;;1.92;;
789;SDS011;378;48.844;9.156;2022-09-03T08:27:58;3.67;;;2.17;;
789;SDS011;378;48.844;9.156;2022-09-03T08:30:25;3.35;;;2.03;;
789;SDS011;378;48.844;9.156;2022-09-03T08:32:53;4.25;;;2.05;;
789;SDS011;378;48.844;9.156;2022-09-03T08:35:22;6.25;;;2.17;;
789;SDS011;378;48.844;9.156;2022-09-03T08:37:49;3.95;;;2.10;;
789;SDS011;378;48.844;9.156;2022-09-03T08:40:18;5.13;;;2.22;;
789;SDS011;378;48.844;9.156;2022-09-03T08:42:51;3.38;;;2.10;;
789;SDS011;378;48.844;9.156;2022-09-03T08:45:30;5.50;;;2.47;;
789;SDS011;378;48.844;9.156;2022-09-03T08:48:00;4.30;;;2.42;;
789;SDS011;378;48.844;9.156;2022-09-03T08:50:33;3.13;;;2.10;;
789;SDS011;378;48.844;9.156;2022-09-03T08:53:06;5.10;;;2.50;;
789;SDS011;378;48.844;9.156;2022-09-03T08:55:38;4.65;;;2.72;;
789;SDS011;378;48.844;9.156;2022-09-03T08:58:13;5.68;;;2.65;;
789;SDS011;378;48.844;9.156;2022-09-03T09:00:46;8.80;;;3.10;;
789;SDS011;378;48.844;9.156;2022-09-03T09:03:30;5.32;;;2.90;;
789;SDS011;378;48.844;9.156;2022-09-03T09:06:06;3.35;;;2.70;;
789;SDS011;378;48.844;9.156;2022-09-03T09:08:41;15.93;;;3.10;;
789;SDS011;378;48.844;9.156;2022-09-03T09:11:15;6.28;;;2.70;;
789;SDS011;378;48.844;9.156;2022-09-03T09:13:52;3.40;;;2.65;;
789;SDS011;378;48.844;9.156;2022-09-03T09:16:26;3.47;;;2.95;;
789;SDS011;378;48.844;9.156;2022-09-03T09:19:02;3.80;;;2.38;;
789;SDS011;378;48.844;9.156;2022-09-03T09:21:40;5.80;;;2.50;;
789;SDS011;378;48.844;9.156;2022-09-03T09:24:12;5.22;;;2.35;;
789;SDS011;378;48.844;9.156;2022-09-03T09:26:46;4.93;;;2.45;;
789;SDS011;378;48.844;9.156;2022-09-03T09:29:13;4.05;;;2.60;;
789;SDS011;378;48.844;9.156;2022-09-03T09:31:41;5.85;;;2.30;;
789;SDS011;378;48.844;9.156;2022-09-03T09:34:09;3.80;;;2.30;;
789;SDS011;378;48.844;9.156;2022-09-03T09:36:40;4.95;;;3.03;;
789;SDS011;378;48.844;9.156;2022-09-03T09:39:11;2.83;;;2.47;;
789;SDS011;378;48.844;9.156;2022-09-03T09:41:40;4.85;;;2.67;;
789;SDS011;378;48.844;9.156;2022-09-03T09:44:16;3.30;;;2.40;;
789;SDS011;378;48.844;9.156;2022-09-03T09:46:44;7.75;;;2.30;;
789;SDS011;378;48.844;9.156;2022-09-03T09:49:26;5.28;;;2.90;;
789;SDS011;378;48.844;9.156;2022-09-03T09:52:01;3.08;;;2.35;;
789;SDS011;378;48.844;9.156;2022-09-03T09:54:30;3.67;;;2.30;;
789;SDS011;378;48.844;9.156;2022-09-03T09:56:57;2.42;;;2.03;;
789;SDS011;378;48.844;9.156;2022-09-03T09:59:26;4.00;;;2.33;;
789;SDS011;378;48.844;9.156;2022-09-03T10:02:01;3.50;;;2.00;;
789;SDS011;378;48.844;9.156;2022-09-03T10:04:31;4.85;;;2.10;;
789;SDS011;378;48.844;9.156;2022-09-03T10:07:01;7.13;;;2.38;;
789;SDS011;378;48.844;9.156;2022-09-03T10:09:31;3.05;;;2.00;;
789;SDS011;378;48.844;9.156;2022-09-03T10:12:02;3.00;;;2.03;;
789;SDS011;378;48.844;9.156;2022-09-03T10:14:39;4.03;;;1.95;;
789;SDS011;378;48.844;9.156;2022-09-03T10:17:11;2.75;;;2.30;;
789;SDS011;378;48.844;9.156;2022-09-03T10:19:45;4.07;;;1.95;;
789;SDS011;378;48.844;9.156;2022-09-03T10:22:37;3.42;;;2.13;;
789;SDS011;378;48.844;9.156;2022-09-03T10:25:10;4.55;;;2.22;;
789;SDS011;378;48.844;9.156;2022-09-03T10:27:39;3.10;;;2.20;;
789;SDS011;378;48.844;9.156;2022-09-03T10:30:10;3.38;;;2.08;;
789;SDS011;378;48.844;9.156;2022-09-03T10:32:40;4.45;;;1.92;;
789;SDS011;378;48.844;9.156;2022-09-03T10:35:19;3.45;;;2.10;;
789;SDS011;378;48.844;9.156;2022-09-03T10:37:54;3.00;;;2.00;;
789;SDS011;378;48.844;9.156;2022-09-03T10:40:33;4.05;;;2.25;;
789;SDS011;378;48.844;9.156;2022-09-03T10:45:57;5.15;;;2.10;;
789;SDS011;378;48.844;9.156;2022-09-03T10:48:42;6.43;;;2.65;;
789;SDS011;378;48.844;9.156;2022-09-03T10:51:20;4.20;;;1.98;;
789;SDS011;378;48.844;9.156;2022-09-03T10:53:57;4.07;;;2.00;;
789;SDS011;378;48.844;9.156;2022-09-03T10:56:44;3.28;;;1.88;;
789;SDS011;378;48.844;9.156;2022-09-03T10:59:24;3.80;;;1.98;;
789;SDS011;378;48.844;9.156;2022-09-03T11:02:05;2.85;;;1.90;;
789;SDS011;378;48.844;9.156;2022-09-03T11:04:47;4.90;;;2.25;;
789;SDS011;378;48.844;9.156;2022-09-03T11:07:21;3.33;;;2.10;;
789;SDS011;378;48.844;9.156;2022-09-03T11:09:56;4.65;;;1.90;;
789;SDS011;378;48.844;9.156;2022-09-03T11:12:30;3.40;;;2.03;;
789;SDS011;378;48.844;9.156;2022-09-03T11:15:02;3.25;;;1.90;;
789;SDS011;378;48.844;9.156;2022-09-03T11:17:35;3.78;;;2.03;;
789;SDS011;378;48.844;9.156;2022-09-03T11:20:08;3.22;;;2.08;;
789;SDS011;378;48.844;9.156;2022-09-03T11:22:41;5.47;;;2.10;;
789;SDS011;378;48.844;9.156;2022-09-03T11:25:11;2.92;;;2.00;;
789;SDS011;378;48.844;9.156;2022-09-03T11:27:48;4.70;;;1.90;;
789;SDS011;378;48.844;9.156;2022-09-03T11:30:23;2.92;;;2.20;;
789;SDS011;378;48.844;9.156;2022-09-03T11:32:54;2.85;;;2.20;;
789;SDS011;378;48.844;9.156;2022-09-03T11:35:26;4.22;;;2.10;;
789;SDS011;378;48.844;9.156;2022-09-03T11:37:57;7.13;;;2.35;;
789;SDS011;378;48.844;9.156;2022-09-03T11:40:32;4.70;;;2.05;;
789;SDS011;378;48.844;9.156;2022-09-03T11:43:06;5.32;;;2.53;;
789;SDS011;378;48.844;9.156;2022-09-03T11:45:37;4.82;;;2.35;;
789;SDS011;378;48.844;9.156;2022-09-03T11:48:17;3.63;;;2.40;;
789;SDS011;378;48.844;9.156;2022-09-03T11:50:58;4.63;;;2.50;;
789;SDS011;378;48.844;9.156;2022-09-03T11:53:26;5.50;;;2.60;;
789;SDS011;378;48.844;9.156;2022-09-03T11:56:00;4.00;;;2.10;;
789;SDS011;378;48.844;9.156;2022-09-03T11:58:42;4.50;;;2.40;;
789;SDS011;378;48.844;9.156;2022-09-03T12:01:10;5.25;;;2.53;;
789;SDS011;378;48.844;9.156;2022-09-03T12:03:39;4.75;;;2.38;;
789;SDS011;378;48.844;9.156;2022-09-03T12:09:11;4.72;;;2.60;;
789;SDS011;378;48.844;9.156;2022-09-03T12:11:57;2.95;;;2.20;;
789;SDS011;378;48.844;9.156;2022-09-03T12:14:42;3.95;;;2.70;;
789;SDS011;378;48.844;9.156;2022-09-03T12:17:41;5.28;;;2.80;;
789;SDS011;378;48.844;9.156;2022-09-03T12:21:00;7.97;;;2.90;;
789;SDS011;378;48.844;9.156;2022-09-03T12:23:57;4.43;;;2.80;;
789;SDS011;378;48.844;9.156;2022-09-03T12:27:04;6.03;;;2.97;;
789;SDS011;378;48.844;9.156;2022-09-03T12:30:12;4.35;;;2.67;;
789;SDS011;378;48.844;9.156;2022-09-03T12:33:09;8.82;;;2.70;;
789;SDS011;378;48.844;9.156;2022-09-03T12:36:07;5.00;;;2.85;;
789;SDS011;378;48.844;9.156;2022-09-03T12:39:08;2.90;;;2.60;;
789;SDS011;378;48.844;9.156;2022-09-03T12:42:14;3.65;;;2.55;;
789;SDS011;378;48.844;9.156;2022-09-03T12:45:20;4.93;;;2.90;;
789;SDS011;378;48.844;9.156;2022-09-03T12:48:11;5.63;;;3.40;;
789;SDS011;378;48.844;9.156;2022-09-03T12:51:00;4.28;;;2.03;;
789;SDS011;378;48.844;9.156;2022-09-03T12:53:53;3.55;;;2.00;;
789;SDS011;378;48.844;9.156;2022-09-03T12:56:36;10.52;;;2.53;;
789;SDS011;378;48.844;9.156;2022-09-03T13:02:17;4.65;;;2.35;;
789;SDS011;378;48.844;9.156;2022-09-03T13:05:01;8.88;;;2.97;;
789;SDS011;378;48.844;9.156;2022-09-03T13:07:53;9.25;;;3.00;;
789;SDS011;378;48.844;9.156;2022-09-03T13:10:40;4.63;;;2.60;;
789;SDS011;378;48.844;9.156;2022-09-03T13:13:30;6.75;;;2.58;;
789;SDS011;378;48.844;9.156;2022-09-03T13:19:41;6.28;;;3.22;;
789;SDS011;378;48.844;9.156;2022-09-03T13:22:40;9.07;;;3.17;;
789;SDS011;378;48.844;9.156;2022-09-03T13:25:42;8.52;;;3.42;;
789;SDS011;378;48.844;9.156;2022-09-03T13:28:39;7.00;;;3.30;;
789;SDS011;378;48.844;9.156;2022-09-03T13:31:28;5.05;;;2.45;;
789;SDS011;378;48.844;9.156;2022-09-03T13:34:18;3.92;;;2.50;;
789;SDS011;378;48.844;9.156;2022-09-03T13:37:04;3.42;;;1.90;;
789;SDS011;378;48.844;9.156;2022-09-03T13:40:23;5.35;;;1.55;;
789;SDS011;378;48.844;9.156;2022-09-03T13:43:19;2.13;;;1.60;;
789;SDS011;378;48.844;9.156;2022-09-03T13:46:30;1.70;;;0.90;;
789;SDS011;378;48.844;9.156;2022-09-03T13:49:15;2.80;;;0.93;;
789;SDS011;378;48.844;9.156;2022-09-03T13:52:18;2.65;;;1.48;;
789;SDS011;378;48.844;9.156;2022-09-03T13:58:17;1.92;;;1.30;;
789;SDS011;378;48.844;9.156;2022-09-03T14:00:53;4.45;;;1.50;;
789;SDS011;378;48.844;9.156;2022-09-03T14:03:57;2.83;;;1.60;;
789;SDS011;378;48.844;9.156;2022-09-03T14:06:35;2.95;;;1.58;;
789;SDS011;378;48.844;9.156;2022-09-03T14:09:14;2.30;;;1.42;;
789;SDS011;378;48.844;9.156;2022-09-03T14:11:56;5.13;;;1.63;;
789;SDS011;378;48.844;9.156;2022-09-03T14:14:30;3.88;;;1.40;;
789;SDS011;378;48.844;9.156;2022-09-03T14:17:11;2.97;;;1.40;;
789;SDS011;378;48.844;9.156;2022-09-03T14:20:09;3.25;;;1.42;;
789;SDS011;378;48.844;9.156;2022-09-03T14:22:53;2.40;;;1.55;;
789;SDS011;378;48.844;9.156;2022-09-03T14:37:01;2.42;;;1.60;;
789;SDS011;378;48.844;9.156;2022-09-03T14:50:12;3.58;;;1.75;;
789;SDS011;378;48.844;9.156;2022-09-03T14:52:56;4.43;;;2.00;;
789;SDS011;378;48.844;9.156;2022-09-03T14:58:45;2.83;;;1.83;;
789;SDS011;378;48.844;9.156;2022-09-03T15:01:26;3.65;;;2.10;;
789;SDS011;378;48.844;9.156;2022-09-03T15:04:04;7.10;;;2.33;;
789;SDS011;378;48.844;9.156;2022-09-03T15:07:02;2.92;;;2.10;;
789;SDS011;378;48.844;9.156;2022-09-03T15:09:41;2.83;;;2.17;;
789;SDS011;378;48.844;9.156;2022-09-03T15:12:17;5.15;;;2.03;;
789;SDS011;378;48.844;9.156;2022-09-03T15:14:49;2.63;;;1.70;;
789;SDS011;378;48.844;9.156;2022-09-03T15:17:25;2.38;;;1.40;;
789;SDS011;378;48.844;9.156;2022-09-03T15:20:09;2.28;;;1.45;;
789;SDS011;378;48.844;9.156;2022-09-03T15:22:50;3.53;;;1.25;;
789;SDS011;378;48.844;9.156;2022-09-03T15:25:35;4.45;;;1.10;;
789;SDS011;378;48.844;9.156;2022-09-03T15:28:14;1.38;;;0.90;;
789;SDS011;378;48.844;9.156;2022-09-03T15:30:51;2.25;;;1.00;;
789;SDS011;378;48.844;9.156;2022-09-03T15:33:27;1.25;;;0.75;;
789;SDS011;378;48.844;9.156;2022-09-03T15:36:05;1.20;;;0.95;;
789;SDS011;378;48.844;9.156;2022-09-03T15:38:46;2.00;;;1.05;;
789;SDS011;378;48.844;9.156;2022-09-03T15:41:22;1.52;;;1.02;;
789;SDS011;378;48.844;9.156;2022-09-03T15:43:57;2.67;;;1.13;;
789;SDS011;378;48.844;9.156;2022-09-03T15:46:30;1.60;;;1.17;;
789;SDS011;378;48.844;9.156;2022-09-03T15:49:04;4.53;;;1.25;;
789;SDS011;378;48.844;9.156;2022-09-03T15:51:40;1.95;;;1.20;;
789;SDS011;378;48.844;9.156;2022-09-03T15:54:20;2.13;;;1.10;;
789;SDS011;378;48.844;9.156;2022-09-03T15:56:57;4.28;;;1.20;;
789;SDS011;378;48.844;9.156;2022-09-03T15:59:32;2.17;;;1.20;;
789;SDS011;378;48.844;9.156;2022-09-03T16:02:05;3.67;;;1.30;;
789;SDS011;378;48.844;9.156;2022-09-03T16:04:39;2.83;;;1.20;;
789;SDS011;378;48.844;9.156;2022-09-03T16:07:17;1.98;;;1.40;;
789;SDS011;378;48.844;9.156;2022-09-03T16:09:52;17.00;;;1.70;;
789;SDS011;378;48.844;9.156;2022-09-03T16:12:33;2.10;;;1.30;;
789;SDS011;378;48.844;9.156;2022-09-03T16:15:03;3.28;;;1.40;;
789;SDS011;378;48.844;9.156;2022-09-03T16:17:37;2.08;;;1.65;;
789;SDS011;378;48.844;9.156;2022-09-03T16:20:16;2.55;;;1.50;;
789;SDS011;378;48.844;9.156;2022-09-03T16:22:48;2.40;;;1.33;;
789;SDS011;378;48.844;9.156;2022-09-03T16:25:23;4.10;;;1.77;;
789;SDS011;378;48.844;9.156;2022-09-03T16:27:56;2.60;;;1.67;;
789;SDS011;378;48.844;9.156;2022-09-03T16:30:33;5.93;;;1.88;;
789;SDS011;378;48.844;9.156;2022-09-03T16:33:12;2.85;;;1.90;;
789;SDS011;378;48.844;9.156;2022-09-03T16:35:49;2.72;;;1.92;;
789;SDS011;378;48.844;9.156;2022-09-03T16:38:25;4.78;;;1.60;;
789;SDS011;378;48.844;9.156;2022-09-03T16:41:02;3.00;;;1.67;;
789;SDS011;378;48.844;9.156;2022-09-03T16:43:40;4.55;;;2.58;;
789;SDS011;378;48.844;9.156;2022-09-03T16:46:16;6.38;;;4.00;;
789;SDS011;378;48.844;9.156;2022-09-03T16:48:51;4.30;;;2.67;;
789;SDS011;378;48.844;9.156;2022-09-03T16:51:31;6.03;;;2.63;;
789;SDS011;378;48.844;9.156;2022-09-03T16:54:07;6.00;;;2.25;;
789;SDS011;378;48.844;9.156;2022-09-03T16:56:47;5.72;;;1.75;;
789;SDS011;378;48.844;9.156;2022-09-03T16:59:27;5.97;;;2.03;;
789;SDS011;378;48.844;9.156;2022-09-03T17:02:10;9.65;;;1.90;;
789;SDS011;378;48.844;9.156;2022-09-03T17:05:02;4.00;;;2.15;;
789;SDS011;378;48.844;9.156;2022-09-03T17:07:55;2.88;;;1.80;;
789;SDS011;378;48.844;9.156;2022-09-03T17:10:34;3.25;;;2.10;;
789;SDS011;378;48.844;9.156;2022-09-03T17:16:08;10.02;;;4.22;;